createdAt,value
2022-12-11T00:02:25.069Z,18.63
2022-12-11T00:04:52.200Z,10.40
2022-12-11T00:07:19.343Z,11.85
2022-12-11T00:09:46.534Z,14.77
2022-12-11T00:12:13.705Z,11.88
2022-12-11T00:14:40.884Z,11.82
2022-12-11T00:17:08.137Z,13.05
2022-12-11T00:19:35.280Z,11.20
2022-12-11T00:22:02.420Z,14.38
2022-12-11T00:24:29.518Z,11.32
2022-12-11T00:26:56.719Z,10.85
2022-12-11T00:29:23.898Z,13.52
2022-12-11T00:31:51.093Z,10.30
2022-12-11T00:34:18.383Z,13.48
2022-12-11T00:36:45.524Z,11.40
2022-12-11T00:39:12.680Z,11.55
2022-12-11T00:41:39.838Z,12.75
2022-12-11T00:44:07.055Z,15.27
2022-12-11T00:46:34.290Z,15.30
2022-12-11T00:49:01.521Z,16.92
2022-12-11T00:51:29.079Z,13.90
2022-12-11T00:53:56.209Z,13.05
2022-12-11T00:56:24.564Z,13.35
2022-12-11T00:58:52.310Z,12.70
2022-12-11T01:01:21.216Z,15.40
2022-12-11T01:03:48.432Z,13.38
2022-12-11T01:06:20.200Z,11.20
2022-12-11T01:08:47.923Z,13.75
2022-12-11T01:11:16.427Z,11.05
2022-12-11T01:13:44.006Z,12.82
2022-12-11T01:16:13.444Z,12.35
2022-12-11T01:18:40.674Z,16.50
2022-12-11T01:21:12.287Z,14.23
2022-12-11T01:23:39.916Z,12.52
2022-12-11T01:26:10.967Z,12.77
2022-12-11T01:28:38.217Z,10.25
2022-12-11T01:31:09.537Z,11.52
2022-12-11T01:33:36.901Z,14.43
2022-12-11T01:36:07.884Z,13.25
2022-12-11T01:38:35.025Z,15.43
2022-12-11T01:41:02.176Z,12.02
2022-12-11T01:43:29.633Z,12.18
2022-12-11T01:45:56.896Z,10.82
2022-12-11T01:48:29.722Z,13.52
2022-12-11T01:51:01.959Z,13.15
2022-12-11T01:53:32.011Z,11.35
2022-12-11T01:55:59.881Z,8.90
2022-12-11T01:58:41.845Z,11.77
2022-12-11T02:01:11.745Z,11.60
2022-12-11T02:03:38.912Z,13.30
2022-12-11T02:06:06.174Z,10.75
2022-12-11T02:08:33.406Z,13.05
2022-12-11T02:11:17.273Z,10.73
2022-12-11T02:13:58.149Z,11.00
2022-12-11T02:16:39.240Z,10.73
2022-12-11T02:19:25.250Z,10.98
2022-12-11T02:21:54.099Z,13.45
2022-12-11T02:24:21.234Z,9.90
2022-12-11T02:26:48.490Z,10.80
2022-12-11T02:29:33.957Z,8.82
2022-12-11T02:32:08.151Z,9.97
2022-12-11T02:34:35.370Z,8.45
2022-12-11T02:37:12.400Z,8.93
2022-12-11T02:39:41.314Z,8.48
2022-12-11T02:42:09.400Z,8.93
2022-12-11T02:44:36.751Z,8.85
2022-12-11T02:47:04.734Z,7.25
2022-12-11T02:49:32.317Z,7.88
2022-12-11T02:52:01.124Z,9.85
2022-12-11T02:54:29.875Z,7.90
2022-12-11T02:57:10.954Z,9.70
2022-12-11T02:59:40.790Z,9.48
2022-12-11T03:02:08.372Z,8.98
2022-12-11T03:04:36.848Z,10.20
2022-12-11T03:07:12.083Z,7.57
2022-12-11T03:09:46.213Z,9.18
2022-12-11T03:12:15.012Z,9.07
2022-12-11T03:14:43.092Z,8.80
2022-12-11T03:17:15.417Z,10.45
2022-12-11T03:19:47.275Z,8.88
2022-12-11T03:22:20.038Z,7.88
2022-12-11T03:24:50.932Z,8.50
2022-12-11T03:27:25.775Z,8.15
2022-12-11T03:29:58.646Z,6.63
2022-12-11T03:32:29.120Z,8.00
2022-12-11T03:35:22.550Z,7.35
2022-12-11T03:37:50.323Z,7.43
2022-12-11T03:40:18.967Z,7.50
2022-12-11T03:42:47.609Z,8.65
2022-12-11T03:45:15.602Z,5.97
2022-12-11T03:47:43.973Z,6.38
2022-12-11T03:50:12.718Z,8.15
2022-12-11T03:52:45.703Z,7.28
2022-12-11T03:55:14.457Z,6.82
2022-12-11T03:57:41.741Z,7.35
2022-12-11T04:00:13.807Z,6.30
2022-12-11T04:02:41.436Z,6.70
2022-12-11T04:05:09.651Z,6.35
2022-12-11T04:07:37.105Z,6.05
2022-12-11T04:10:05.408Z,6.05
2022-12-11T04:12:32.739Z,6.15
2022-12-11T04:15:02.940Z,8.15
2022-12-11T04:17:53.305Z,7.30
2022-12-11T04:20:39.431Z,6.55
2022-12-11T04:23:32.639Z,6.22
2022-12-11T04:26:10.163Z,6.30
2022-12-11T04:28:37.401Z,8.48
2022-12-11T04:31:04.755Z,6.40
2022-12-11T04:33:32.147Z,7.03
2022-12-11T04:35:59.891Z,5.88
2022-12-11T04:38:27.602Z,5.88
2022-12-11T04:40:58.824Z,5.78
2022-12-11T04:43:26.123Z,6.35
2022-12-11T04:46:01.033Z,7.38
2022-12-11T04:48:28.231Z,5.67
2022-12-11T04:50:55.468Z,5.60
2022-12-11T04:53:22.613Z,6.78
2022-12-11T04:55:49.836Z,6.45
2022-12-11T04:58:17.031Z,6.10
2022-12-11T05:00:44.352Z,5.35
2022-12-11T05:03:11.619Z,5.85
2022-12-11T05:05:38.768Z,15.65
2022-12-11T05:08:06.114Z,4.80
2022-12-11T05:10:33.323Z,5.60
2022-12-11T05:13:00.508Z,8.32
2022-12-11T05:15:27.637Z,5.97
2022-12-11T05:17:54.807Z,4.80
2022-12-11T05:20:22.031Z,5.68
2022-12-11T05:22:49.200Z,4.38
2022-12-11T05:25:16.404Z,5.93
2022-12-11T05:27:43.545Z,5.65
2022-12-11T05:30:10.952Z,6.95
2022-12-11T05:32:38.176Z,4.95
2022-12-11T05:35:05.507Z,5.28
2022-12-11T05:37:34.444Z,4.50
2022-12-11T05:40:01.630Z,4.57
2022-12-11T05:42:29.262Z,5.07
2022-12-11T05:44:56.568Z,4.78
2022-12-11T05:47:23.721Z,4.63
2022-12-11T05:49:50.890Z,6.72
2022-12-11T05:52:18.215Z,4.97
2022-12-11T05:54:45.409Z,5.28
2022-12-11T05:57:12.560Z,4.63
2022-12-11T05:59:39.748Z,4.65
2022-12-11T06:02:07.076Z,4.57
2022-12-11T06:04:34.378Z,5.43
2022-12-11T06:07:01.523Z,4.47
2022-12-11T06:09:28.687Z,4.57
2022-12-11T06:11:55.846Z,6.70
2022-12-11T06:14:23.276Z,5.30
2022-12-11T06:16:50.527Z,6.05
2022-12-11T06:19:18.536Z,5.13
2022-12-11T06:21:48.847Z,5.15
2022-12-11T06:24:16.018Z,4.53
2022-12-11T06:26:43.140Z,4.63
2022-12-11T06:29:13.003Z,5.03
2022-12-11T06:31:40.708Z,6.60
2022-12-11T06:34:07.883Z,4.63
2022-12-11T06:36:35.185Z,4.75
2022-12-11T06:39:02.379Z,4.10
2022-12-11T06:41:32.340Z,5.97
2022-12-11T06:43:59.459Z,4.15
2022-12-11T06:46:26.634Z,4.57
2022-12-11T06:48:53.837Z,4.40
2022-12-11T06:51:22.268Z,4.75
2022-12-11T06:53:56.455Z,4.13
2022-12-11T06:56:24.382Z,4.00
2022-12-11T06:58:52.057Z,4.22
2022-12-11T07:01:26.938Z,3.75
2022-12-11T07:03:54.918Z,5.55
2022-12-11T07:06:22.401Z,4.35
2022-12-11T07:08:49.650Z,5.43
2022-12-11T07:11:17.522Z,3.88
2022-12-11T07:13:45.337Z,4.68
2022-12-11T07:16:14.028Z,3.92
2022-12-11T07:18:42.094Z,3.58
2022-12-11T07:21:10.258Z,4.10
2022-12-11T07:23:37.518Z,4.50
2022-12-11T07:26:05.913Z,6.60
2022-12-11T07:28:33.200Z,6.75
2022-12-11T07:31:00.389Z,4.97
2022-12-11T07:33:27.533Z,4.95
2022-12-11T07:35:54.673Z,5.47
2022-12-11T07:38:22.266Z,4.22
2022-12-11T07:40:49.802Z,5.25
2022-12-11T07:43:17.167Z,4.10
2022-12-11T07:45:44.497Z,8.60
2022-12-11T07:48:12.779Z,4.57
2022-12-11T07:50:40.114Z,5.78
2022-12-11T07:53:07.711Z,4.70
2022-12-11T07:55:34.817Z,7.18
2022-12-11T07:58:01.930Z,4.78
2022-12-11T08:00:29.105Z,5.45
2022-12-11T08:02:56.262Z,4.80
2022-12-11T08:05:23.414Z,5.47
2022-12-11T08:07:50.648Z,5.65
2022-12-11T08:10:18.229Z,5.78
2022-12-11T08:12:45.446Z,4.90
2022-12-11T08:15:12.838Z,7.18
2022-12-11T08:17:40.476Z,7.20
2022-12-11T08:20:08.491Z,6.70
2022-12-11T08:22:35.687Z,9.35
2022-12-11T08:25:02.787Z,9.13
2022-12-11T08:27:32.645Z,9.13
2022-12-11T08:29:59.805Z,11.23
2022-12-11T08:32:26.931Z,10.38
2022-12-11T08:34:54.147Z,11.82
2022-12-11T08:37:21.667Z,14.55
2022-12-11T08:39:48.888Z,9.13
2022-12-11T08:42:16.315Z,10.93
2022-12-11T08:44:44.015Z,13.65
2022-12-11T08:47:11.653Z,13.80
2022-12-11T08:49:39.053Z,8.52
2022-12-11T08:52:06.517Z,11.70
2022-12-11T08:54:33.996Z,8.43
2022-12-11T08:57:01.144Z,13.25
2022-12-11T08:59:28.326Z,20.15
2022-12-11T09:01:56.242Z,11.00
2022-12-11T09:04:23.734Z,7.82
2022-12-11T09:06:50.882Z,9.70
2022-12-11T09:09:19.020Z,10.00
2022-12-11T09:11:46.422Z,10.15
2022-12-11T09:14:16.211Z,9.68
2022-12-11T09:16:43.589Z,7.20
2022-12-11T09:19:14.039Z,9.07
2022-12-11T09:21:42.228Z,9.85
2022-12-11T09:24:10.022Z,8.05
2022-12-11T09:26:37.281Z,9.02
2022-12-11T09:29:05.386Z,9.07
2022-12-11T09:31:34.031Z,8.60
2022-12-11T09:34:02.284Z,9.45
2022-12-11T09:36:29.725Z,7.40
2022-12-11T09:38:57.038Z,8.38
2022-12-11T09:41:24.206Z,6.15
2022-12-11T09:43:54.412Z,9.95
2022-12-11T09:46:24.665Z,7.28
2022-12-11T09:48:53.719Z,7.75
2022-12-11T09:51:34.253Z,9.13
2022-12-11T09:54:04.086Z,8.95
2022-12-11T09:56:42.603Z,6.68
2022-12-11T09:59:39.185Z,10.20
2022-12-11T10:02:12.270Z,6.75
2022-12-11T10:04:42.179Z,5.55
2022-12-11T10:07:15.278Z,5.85
2022-12-11T10:10:01.128Z,8.38
2022-12-11T10:12:38.322Z,7.63
2022-12-11T10:15:17.938Z,5.90
2022-12-11T10:17:45.618Z,5.70
2022-12-11T10:20:24.932Z,7.60
2022-12-11T10:22:52.778Z,6.47
2022-12-11T10:25:28.836Z,7.43
2022-12-11T10:27:56.291Z,5.68
2022-12-11T10:30:30.456Z,5.50
2022-12-11T10:33:23.939Z,6.47
2022-12-11T10:35:55.895Z,5.20
2022-12-11T10:38:33.622Z,6.93
2022-12-11T10:41:05.215Z,5.38
2022-12-11T10:43:43.403Z,5.45
2022-12-11T10:46:24.473Z,7.53
2022-12-11T10:48:59.229Z,5.70
2022-12-11T10:51:33.985Z,17.13
2022-12-11T10:54:07.180Z,7.68
2022-12-11T10:56:35.971Z,7.63
2022-12-11T10:59:03.401Z,9.18
2022-12-11T11:01:32.074Z,5.82
2022-12-11T11:04:01.246Z,8.00
2022-12-11T11:06:28.793Z,13.68
2022-12-11T11:08:57.964Z,14.70
2022-12-11T11:11:25.151Z,19.23
2022-12-11T11:13:52.981Z,17.45
2022-12-11T11:16:21.751Z,17.65
2022-12-11T11:18:54.143Z,18.05
2022-12-11T11:21:23.264Z,18.20
2022-12-11T11:23:53.608Z,17.67
2022-12-11T11:26:22.990Z,17.60
2022-12-11T11:28:53.235Z,15.57
2022-12-11T11:31:21.628Z,14.95
2022-12-11T11:33:48.789Z,14.27
2022-12-11T11:36:20.944Z,12.65
2022-12-11T11:38:51.177Z,10.75
2022-12-11T11:41:20.868Z,9.82
2022-12-11T11:43:50.791Z,10.45
2022-12-11T11:46:23.207Z,8.93
2022-12-11T11:48:53.372Z,9.07
2022-12-11T11:51:40.888Z,10.65
2022-12-11T11:54:23.343Z,8.88
2022-12-11T11:56:52.450Z,8.70
2022-12-11T11:59:25.524Z,8.35
2022-12-11T12:01:54.881Z,8.57
2022-12-11T12:04:22.186Z,8.25
2022-12-11T12:07:01.860Z,9.23
2022-12-11T12:09:39.663Z,7.82
2022-12-11T12:12:29.708Z,11.48
2022-12-11T12:15:10.965Z,9.75
2022-12-11T12:17:54.972Z,9.48
2022-12-11T12:20:38.553Z,15.75
2022-12-11T12:23:15.035Z,17.35
2022-12-11T12:25:46.286Z,19.50
2022-12-11T12:28:13.943Z,20.67
2022-12-11T12:30:45.845Z,25.30
2022-12-11T12:33:18.900Z,26.88
2022-12-11T12:35:54.819Z,28.65
2022-12-11T12:41:14.307Z,30.52
2022-12-11T12:43:51.511Z,33.67
2022-12-11T12:46:18.739Z,49.67
2022-12-11T12:48:46.467Z,48.72
2022-12-11T12:51:17.311Z,52.53
2022-12-11T12:53:55.585Z,53.10
2022-12-11T12:56:23.223Z,57.72
2022-12-11T12:58:50.462Z,57.55
2022-12-11T13:01:20.743Z,50.90
2022-12-11T13:03:59.350Z,50.08
2022-12-11T13:06:29.295Z,52.85
2022-12-11T13:08:56.720Z,48.05
2022-12-11T13:11:32.186Z,52.13
2022-12-11T13:14:07.709Z,48.67
2022-12-11T13:16:36.976Z,47.50
2022-12-11T13:19:05.453Z,55.13
2022-12-11T13:21:35.480Z,48.30
2022-12-11T13:24:32.080Z,50.42
2022-12-11T13:27:09.959Z,40.83
2022-12-11T13:29:37.119Z,46.45
2022-12-11T13:32:20.570Z,47.00
2022-12-11T13:34:57.972Z,44.60
2022-12-11T13:37:30.411Z,41.58
2022-12-11T13:39:57.843Z,75.82
2022-12-11T13:42:32.959Z,61.75
2022-12-11T13:45:01.019Z,58.53
2022-12-11T13:47:29.551Z,57.90
2022-12-11T13:50:01.295Z,51.15
2022-12-11T13:52:28.959Z,54.97
2022-12-11T13:54:59.216Z,53.45
2022-12-11T13:57:28.667Z,50.20
2022-12-11T13:59:57.175Z,50.55
2022-12-11T14:02:35.165Z,49.13
2022-12-11T14:05:12.858Z,44.47
2022-12-11T14:07:45.068Z,47.88
2022-12-11T14:10:17.372Z,46.95
2022-12-11T14:12:52.347Z,40.90
2022-12-11T14:15:19.877Z,55.83
2022-12-11T14:17:51.706Z,43.05
2022-12-11T14:20:21.448Z,43.88
2022-12-11T14:22:48.614Z,39.95
2022-12-11T14:25:26.817Z,46.97
2022-12-11T14:27:54.808Z,38.65
2022-12-11T14:30:23.177Z,39.42
2022-12-11T14:32:50.743Z,44.88
2022-12-11T14:35:31.724Z,38.63
2022-12-11T14:38:04.653Z,39.30
2022-12-11T14:40:36.499Z,36.60
2022-12-11T14:43:08.186Z,33.17
2022-12-11T14:45:37.565Z,33.88
2022-12-11T14:48:08.337Z,46.35
2022-12-11T14:50:50.443Z,34.65
2022-12-11T14:53:23.102Z,31.23
2022-12-11T14:55:51.445Z,34.75
2022-12-11T14:58:19.963Z,36.90
2022-12-11T15:00:57.683Z,33.40
2022-12-11T15:03:26.050Z,32.75
2022-12-11T15:05:57.106Z,37.80
2022-12-11T15:08:27.852Z,33.45
2022-12-11T15:11:09.315Z,36.88
2022-12-11T15:13:38.020Z,38.65
2022-12-11T15:16:07.448Z,33.22
2022-12-11T15:18:35.659Z,30.83
2022-12-11T15:21:09.395Z,31.63
2022-12-11T15:24:00.989Z,39.47
2022-12-11T15:26:35.838Z,27.52
2022-12-11T15:29:05.686Z,23.15
2022-12-11T15:31:34.904Z,22.98
2022-12-11T15:34:02.683Z,22.42
2022-12-11T15:36:34.748Z,21.88
2022-12-11T15:39:02.818Z,23.20
2022-12-11T15:41:33.360Z,23.80
2022-12-11T15:44:01.743Z,22.42
2022-12-11T15:46:28.975Z,21.42
2022-12-11T15:48:56.727Z,25.30
2022-12-11T15:51:25.243Z,25.88
2022-12-11T15:53:52.384Z,27.75
2022-12-11T15:56:19.538Z,29.30
2022-12-11T15:58:48.076Z,28.15
2022-12-11T16:01:15.286Z,28.27
2022-12-11T16:03:42.443Z,27.60
2022-12-11T16:06:12.828Z,28.25
2022-12-11T16:08:39.989Z,29.52
2022-12-11T16:11:07.158Z,25.58
2022-12-11T16:13:34.382Z,24.05
2022-12-11T16:16:01.646Z,25.85
2022-12-11T16:18:29.069Z,24.67
2022-12-11T16:20:56.288Z,24.00
2022-12-11T16:23:23.600Z,27.63
2022-12-11T16:25:51.029Z,27.75
2022-12-11T16:28:20.694Z,22.25
2022-12-11T16:30:47.876Z,22.92
2022-12-11T16:33:15.239Z,22.85
2022-12-11T16:35:43.176Z,21.67
2022-12-11T16:38:10.672Z,24.63
2022-12-11T16:40:38.535Z,22.48
2022-12-11T16:43:06.395Z,22.85
2022-12-11T16:45:33.995Z,20.58
2022-12-11T16:48:03.807Z,21.25
2022-12-11T16:50:32.184Z,21.00
2022-12-11T16:52:59.444Z,19.40
2022-12-11T16:55:26.672Z,20.00
2022-12-11T16:57:53.952Z,19.25
2022-12-11T17:00:21.161Z,18.95
2022-12-11T17:02:48.423Z,17.52
2022-12-11T17:05:15.673Z,18.55
2022-12-11T17:07:42.820Z,18.92
2022-12-11T17:10:10.386Z,18.92
2022-12-11T17:12:38.983Z,19.02
2022-12-11T17:15:06.472Z,19.17
2022-12-11T17:17:33.664Z,19.95
2022-12-11T17:20:00.906Z,20.63
2022-12-11T17:22:28.076Z,17.17
2022-12-11T17:24:55.312Z,20.02
2022-12-11T17:27:22.965Z,18.08
2022-12-11T17:29:50.793Z,19.60
2022-12-11T17:32:18.576Z,17.40
2022-12-11T17:34:46.193Z,16.98
2022-12-11T17:37:13.413Z,18.75
2022-12-11T17:39:40.651Z,20.08
2022-12-11T17:42:08.214Z,20.83
2022-12-11T17:44:35.545Z,18.23
2022-12-11T17:47:09.169Z,18.08
2022-12-11T17:49:38.350Z,17.10
2022-12-11T17:52:05.904Z,18.58
2022-12-11T17:54:33.039Z,18.35
2022-12-11T17:57:00.255Z,17.48
2022-12-11T17:59:27.372Z,19.23
2022-12-11T18:01:54.566Z,17.40
2022-12-11T18:04:21.712Z,19.27
2022-12-11T18:06:48.868Z,16.08
2022-12-11T18:09:16.056Z,19.73
2022-12-11T18:11:43.255Z,19.38
2022-12-11T18:14:16.670Z,16.33
2022-12-11T18:16:44.443Z,16.48
2022-12-11T18:19:11.617Z,15.20
2022-12-11T18:21:41.222Z,15.95
2022-12-11T18:24:08.970Z,13.93
2022-12-11T18:26:37.449Z,14.85
2022-12-11T18:29:05.103Z,15.38
2022-12-11T18:31:33.140Z,16.20
2022-12-11T18:34:02.584Z,17.13
2022-12-11T18:36:29.885Z,19.00
2022-12-11T18:38:57.138Z,20.33
2022-12-11T18:41:24.669Z,17.90
2022-12-11T18:43:51.845Z,22.33
2022-12-11T18:46:20.487Z,16.88
2022-12-11T18:48:48.155Z,17.00
2022-12-11T18:51:17.439Z,14.88
2022-12-11T18:53:44.881Z,16.08
2022-12-11T18:56:13.680Z,17.65
2022-12-11T18:58:40.985Z,14.30
2022-12-11T19:01:09.291Z,14.68
2022-12-11T19:03:36.820Z,13.98
2022-12-11T19:06:10.434Z,17.42
2022-12-11T19:08:38.098Z,17.70
2022-12-11T19:11:05.665Z,13.18
2022-12-11T19:13:33.629Z,14.90
2022-12-11T19:16:00.987Z,14.88
2022-12-11T19:18:28.795Z,14.93
2022-12-11T19:21:06.421Z,13.77
2022-12-11T19:23:35.850Z,13.65
2022-12-11T19:26:02.999Z,13.75
2022-12-11T19:28:30.389Z,14.27
2022-12-11T19:30:57.666Z,13.77
2022-12-11T19:33:24.945Z,14.00
2022-12-11T19:36:00.778Z,13.98
2022-12-11T19:40:55.286Z,15.30
2022-12-11T19:43:22.473Z,20.38
2022-12-11T19:45:50.766Z,16.48
2022-12-11T19:48:18.132Z,13.77
2022-12-11T19:50:45.327Z,21.23
2022-12-11T19:53:12.529Z,14.98
2022-12-11T19:55:39.645Z,14.38
2022-12-11T19:58:06.919Z,13.43
2022-12-11T20:00:34.146Z,12.18
2022-12-11T20:03:01.339Z,15.73
2022-12-11T20:05:28.525Z,13.15
2022-12-11T20:07:57.507Z,19.00
2022-12-11T20:10:32.593Z,17.42
2022-12-11T20:12:59.811Z,14.77
2022-12-11T20:15:27.642Z,16.05
2022-12-11T20:17:55.546Z,13.48
2022-12-11T20:20:23.631Z,16.48
2022-12-11T20:22:54.609Z,17.10
2022-12-11T20:25:21.864Z,18.90
2022-12-11T20:27:49.066Z,15.73
2022-12-11T20:30:16.446Z,13.77
2022-12-11T20:32:43.917Z,14.88
2022-12-11T20:35:11.611Z,14.40
2022-12-11T20:37:39.103Z,12.18
2022-12-11T20:40:07.305Z,14.55
2022-12-11T20:42:34.665Z,14.30
2022-12-11T20:45:01.854Z,14.05
2022-12-11T20:47:29.028Z,17.58
2022-12-11T20:49:56.198Z,27.60
2022-12-11T20:52:23.539Z,14.30
2022-12-11T20:54:50.831Z,17.52
2022-12-11T20:57:18.147Z,18.45
2022-12-11T20:59:45.485Z,15.40
2022-12-11T21:02:13.503Z,19.92
2022-12-11T21:04:41.338Z,15.73
2022-12-11T21:07:09.303Z,14.35
2022-12-11T21:09:36.946Z,17.45
2022-12-11T21:12:04.832Z,17.10
2022-12-11T21:14:32.387Z,22.33
2022-12-11T21:17:00.049Z,16.90
2022-12-11T21:19:27.261Z,19.50
2022-12-11T21:21:54.479Z,16.05
2022-12-11T21:24:23.569Z,19.58
2022-12-11T21:26:50.914Z,14.45
2022-12-11T21:29:18.058Z,15.75
2022-12-11T21:31:45.414Z,15.57
2022-12-11T21:34:12.546Z,11.73
2022-12-11T21:36:39.753Z,15.65
2022-12-11T21:39:07.299Z,19.20
2022-12-11T21:41:34.428Z,16.85
2022-12-11T21:46:48.904Z,17.00
2022-12-11T21:49:16.441Z,12.52
2022-12-11T21:51:47.040Z,14.60
2022-12-11T21:54:16.610Z,14.20
2022-12-11T21:56:44.230Z,20.60
2022-12-11T21:59:11.384Z,13.43
2022-12-11T22:01:41.919Z,16.67
2022-12-11T22:04:09.920Z,14.68
2022-12-11T22:06:37.277Z,14.38
2022-12-11T22:09:05.287Z,15.20
2022-12-11T22:11:33.547Z,16.05
2022-12-11T22:14:01.378Z,14.35
2022-12-11T22:16:28.942Z,15.00
2022-12-11T22:18:56.258Z,15.60
2022-12-11T22:21:23.365Z,15.50
2022-12-11T22:23:50.593Z,14.23
2022-12-11T22:26:20.597Z,13.30
2022-12-11T22:28:47.785Z,17.77
2022-12-11T22:31:16.600Z,18.05
2022-12-11T22:33:43.902Z,12.40
2022-12-11T22:36:11.270Z,12.55
2022-12-11T22:38:39.344Z,14.88
2022-12-11T22:41:10.983Z,12.30
2022-12-11T22:43:38.153Z,14.52
2022-12-11T22:46:05.548Z,11.48
2022-12-11T22:48:32.856Z,14.00
2022-12-11T22:50:59.976Z,12.93
2022-12-11T22:53:27.103Z,13.65
2022-12-11T22:55:54.239Z,19.60
2022-12-11T22:58:22.033Z,13.70
2022-12-11T23:00:49.381Z,14.43
2022-12-11T23:03:17.234Z,12.77
2022-12-11T23:05:44.403Z,14.93
2022-12-11T23:08:11.679Z,13.43
2022-12-11T23:10:40.430Z,12.43
2022-12-11T23:13:07.640Z,11.50
2022-12-11T23:15:35.191Z,10.50
2022-12-11T23:18:02.355Z,14.20
2022-12-11T23:20:29.717Z,15.75
2022-12-11T23:22:56.851Z,20.63
2022-12-11T23:25:24.023Z,11.60
2022-12-11T23:27:51.155Z,12.90
2022-12-11T23:30:18.272Z,13.45
2022-12-11T23:32:45.412Z,10.25
2022-12-11T23:35:12.737Z,10.88
2022-12-11T23:37:40.066Z,10.90
2022-12-11T23:40:08.683Z,10.68
2022-12-11T23:42:35.949Z,12.85
2022-12-11T23:45:03.170Z,10.50
2022-12-11T23:47:30.323Z,11.13
2022-12-11T23:49:57.697Z,10.13
2022-12-11T23:52:26.572Z,11.07
2022-12-11T23:54:55.337Z,9.13
2022-12-11T23:57:22.520Z,13.13
2022-12-11T23:59:49.635Z,10.35
